Concaran, Argentina
Current Conditions -  °F | °C
As of 6:00 PM on Sunday 21 Dec 2014 (Local Time) from SAOC Reporting Station
Broken Clouds Broken Clouds  
Wind Chill: 63°   Ceiling: 2500
Heat Index: 63°   Visibility: 6mi
Dew Point: 39°   Wind: 5mph
Humidity: 42%   Direction: 230°SW
Pressure: 29.91"   Gusts: NA
Location:  32.57°S, 65.25°W
Report Text: SAOC 212100Z 23004KT 9999 BKN025 SCT04017/04 Q1013
Loading
Personal Weather Stations






























Interactive Weather Map New forecast layout! Learn more

10-Day Weather Forecast

Advertisements
Track Severe Weather on mobile